sensor_id;sensor_type;location;lat;lon;timestamp;P1;durP1;ratioP1;P2;durP2;ratioP2
74908;SDS011;63468;52.058;4.824;2023-07-13T00:01:24;13.63;;;6.35;;
74908;SDS011;63468;52.058;4.824;2023-07-13T00:03:50;14.82;;;6.82;;
74908;SDS011;63468;52.058;4.824;2023-07-13T00:06:15;21.38;;;6.90;;
74908;SDS011;63468;52.058;4.824;2023-07-13T00:08:41;14.23;;;6.13;;
74908;SDS011;63468;52.058;4.824;2023-07-13T00:11:06;16.15;;;7.20;;
74908;SDS011;63468;52.058;4.824;2023-07-13T00:13:31;17.50;;;5.53;;
74908;SDS011;63468;52.058;4.824;2023-07-13T00:15:57;19.13;;;6.82;;
74908;SDS011;63468;52.058;4.824;2023-07-13T00:18:23;19.10;;;6.20;;
74908;SDS011;63468;52.058;4.824;2023-07-13T00:20:55;19.30;;;6.80;;
74908;SDS011;63468;52.058;4.824;2023-07-13T00:23:20;20.65;;;7.47;;
74908;SDS011;63468;52.058;4.824;2023-07-13T00:25:48;15.60;;;6.05;;
74908;SDS011;63468;52.058;4.824;2023-07-13T00:28:15;15.52;;;6.32;;
74908;SDS011;63468;52.058;4.824;2023-07-13T00:30:41;14.75;;;6.38;;
74908;SDS011;63468;52.058;4.824;2023-07-13T00:33:06;17.20;;;6.25;;
74908;SDS011;63468;52.058;4.824;2023-07-13T00:35:32;22.27;;;7.90;;
74908;SDS011;63468;52.058;4.824;2023-07-13T00:37:59;22.05;;;7.00;;
74908;SDS011;63468;52.058;4.824;2023-07-13T00:40:25;18.25;;;7.78;;
74908;SDS011;63468;52.058;4.824;2023-07-13T00:42:51;15.52;;;7.07;;
74908;SDS011;63468;52.058;4.824;2023-07-13T00:47:43;14.02;;;7.03;;
74908;SDS011;63468;52.058;4.824;2023-07-13T00:50:10;16.45;;;6.32;;
74908;SDS011;63468;52.058;4.824;2023-07-13T00:52:38;17.05;;;5.55;;
74908;SDS011;63468;52.058;4.824;2023-07-13T00:55:05;14.05;;;5.85;;
74908;SDS011;63468;52.058;4.824;2023-07-13T00:57:32;19.23;;;6.78;;
74908;SDS011;63468;52.058;4.824;2023-07-13T00:59:58;16.73;;;6.00;;
74908;SDS011;63468;52.058;4.824;2023-07-13T01:02:31;15.45;;;5.85;;
74908;SDS011;63468;52.058;4.824;2023-07-13T01:04:57;14.43;;;6.47;;
74908;SDS011;63468;52.058;4.824;2023-07-13T01:07:22;16.52;;;5.85;;
74908;SDS011;63468;52.058;4.824;2023-07-13T01:09:48;11.85;;;5.38;;
74908;SDS011;63468;52.058;4.824;2023-07-13T01:12:13;12.50;;;5.38;;
74908;SDS011;63468;52.058;4.824;2023-07-13T01:14:39;19.02;;;5.55;;
74908;SDS011;63468;52.058;4.824;2023-07-13T01:17:05;14.70;;;5.00;;
74908;SDS011;63468;52.058;4.824;2023-07-13T01:19:37;16.63;;;5.45;;
74908;SDS011;63468;52.058;4.824;2023-07-13T01:22:16;12.70;;;5.03;;
74908;SDS011;63468;52.058;4.824;2023-07-13T01:24:43;14.90;;;5.10;;
74908;SDS011;63468;52.058;4.824;2023-07-13T01:27:12;16.17;;;5.60;;
74908;SDS011;63468;52.058;4.824;2023-07-13T01:29:38;13.35;;;5.30;;
74908;SDS011;63468;52.058;4.824;2023-07-13T01:32:07;13.30;;;5.60;;
74908;SDS011;63468;52.058;4.824;2023-07-13T01:34:37;11.75;;;6.00;;
74908;SDS011;63468;52.058;4.824;2023-07-13T01:37:04;13.57;;;5.78;;
74908;SDS011;63468;52.058;4.824;2023-07-13T01:39:29;18.55;;;6.68;;
74908;SDS011;63468;52.058;4.824;2023-07-13T01:41:55;16.30;;;6.90;;
74908;SDS011;63468;52.058;4.824;2023-07-13T01:44:20;13.90;;;6.35;;
74908;SDS011;63468;52.058;4.824;2023-07-13T01:46:45;17.60;;;7.07;;
74908;SDS011;63468;52.058;4.824;2023-07-13T01:49:11;14.25;;;6.68;;
74908;SDS011;63468;52.058;4.824;2023-07-13T01:51:36;17.65;;;6.70;;
74908;SDS011;63468;52.058;4.824;2023-07-13T01:54:02;14.05;;;7.22;;
74908;SDS011;63468;52.058;4.824;2023-07-13T01:56:27;12.93;;;7.20;;
74908;SDS011;63468;52.058;4.824;2023-07-13T01:58:52;12.25;;;6.43;;
74908;SDS011;63468;52.058;4.824;2023-07-13T02:01:18;16.67;;;6.60;;
74908;SDS011;63468;52.058;4.824;2023-07-13T02:03:43;14.98;;;7.28;;
74908;SDS011;63468;52.058;4.824;2023-07-13T02:06:09;19.52;;;6.63;;
74908;SDS011;63468;52.058;4.824;2023-07-13T02:08:34;11.70;;;6.50;;
74908;SDS011;63468;52.058;4.824;2023-07-13T02:11:00;14.10;;;6.45;;
74908;SDS011;63468;52.058;4.824;2023-07-13T02:13:27;11.82;;;6.43;;
74908;SDS011;63468;52.058;4.824;2023-07-13T02:15:52;13.25;;;6.50;;
74908;SDS011;63468;52.058;4.824;2023-07-13T02:18:18;12.52;;;7.28;;
74908;SDS011;63468;52.058;4.824;2023-07-13T02:20:43;15.65;;;7.45;;
74908;SDS011;63468;52.058;4.824;2023-07-13T02:23:09;16.60;;;7.07;;
74908;SDS011;63468;52.058;4.824;2023-07-13T02:25:34;12.18;;;6.68;;
74908;SDS011;63468;52.058;4.824;2023-07-13T02:28:00;13.40;;;6.97;;
74908;SDS011;63468;52.058;4.824;2023-07-13T02:30:25;15.18;;;6.82;;
74908;SDS011;63468;52.058;4.824;2023-07-13T02:32:50;11.35;;;7.30;;
74908;SDS011;63468;52.058;4.824;2023-07-13T02:35:16;13.43;;;6.55;;
74908;SDS011;63468;52.058;4.824;2023-07-13T02:37:41;11.77;;;6.00;;
74908;SDS011;63468;52.058;4.824;2023-07-13T02:40:07;13.95;;;5.68;;
74908;SDS011;63468;52.058;4.824;2023-07-13T02:42:33;14.93;;;6.07;;
74908;SDS011;63468;52.058;4.824;2023-07-13T02:44:59;11.95;;;5.32;;
74908;SDS011;63468;52.058;4.824;2023-07-13T02:47:25;10.23;;;4.80;;
74908;SDS011;63468;52.058;4.824;2023-07-13T02:49:51;13.60;;;5.68;;
74908;SDS011;63468;52.058;4.824;2023-07-13T02:52:17;11.10;;;5.28;;
74908;SDS011;63468;52.058;4.824;2023-07-13T02:54:42;12.02;;;6.57;;
74908;SDS011;63468;52.058;4.824;2023-07-13T02:57:07;16.83;;;7.28;;
74908;SDS011;63468;52.058;4.824;2023-07-13T02:59:33;14.13;;;6.63;;
74908;SDS011;63468;52.058;4.824;2023-07-13T03:01:58;11.32;;;5.88;;
74908;SDS011;63468;52.058;4.824;2023-07-13T03:04:23;14.82;;;6.97;;
74908;SDS011;63468;52.058;4.824;2023-07-13T03:06:49;13.63;;;6.55;;
74908;SDS011;63468;52.058;4.824;2023-07-13T03:09:15;10.80;;;5.80;;
74908;SDS011;63468;52.058;4.824;2023-07-13T03:11:40;12.07;;;6.10;;
74908;SDS011;63468;52.058;4.824;2023-07-13T03:14:06;10.70;;;5.97;;
74908;SDS011;63468;52.058;4.824;2023-07-13T03:16:33;11.15;;;5.63;;
74908;SDS011;63468;52.058;4.824;2023-07-13T03:18:58;11.20;;;5.90;;
74908;SDS011;63468;52.058;4.824;2023-07-13T03:21:23;11.75;;;6.25;;
74908;SDS011;63468;52.058;4.824;2023-07-13T03:23:49;11.05;;;5.90;;
74908;SDS011;63468;52.058;4.824;2023-07-13T03:26:15;11.10;;;5.55;;
74908;SDS011;63468;52.058;4.824;2023-07-13T03:28:43;14.07;;;7.22;;
74908;SDS011;63468;52.058;4.824;2023-07-13T03:31:10;11.60;;;6.38;;
74908;SDS011;63468;52.058;4.824;2023-07-13T03:33:37;13.00;;;6.53;;
74908;SDS011;63468;52.058;4.824;2023-07-13T03:36:03;15.02;;;5.28;;
74908;SDS011;63468;52.058;4.824;2023-07-13T03:38:30;15.25;;;5.45;;
74908;SDS011;63468;52.058;4.824;2023-07-13T03:40:55;10.77;;;5.55;;
74908;SDS011;63468;52.058;4.824;2023-07-13T03:43:21;13.07;;;6.28;;
74908;SDS011;63468;52.058;4.824;2023-07-13T03:45:46;10.32;;;5.32;;
74908;SDS011;63468;52.058;4.824;2023-07-13T03:48:12;16.17;;;6.20;;
74908;SDS011;63468;52.058;4.824;2023-07-13T03:50:37;14.95;;;6.95;;
74908;SDS011;63468;52.058;4.824;2023-07-13T03:53:03;11.80;;;5.80;;
74908;SDS011;63468;52.058;4.824;2023-07-13T03:55:28;12.00;;;6.50;;
74908;SDS011;63468;52.058;4.824;2023-07-13T03:57:57;18.45;;;6.63;;
74908;SDS011;63468;52.058;4.824;2023-07-13T04:00:43;11.73;;;6.38;;
74908;SDS011;63468;52.058;4.824;2023-07-13T04:03:08;11.98;;;6.57;;
74908;SDS011;63468;52.058;4.824;2023-07-13T04:05:34;13.65;;;6.95;;
74908;SDS011;63468;52.058;4.824;2023-07-13T04:07:59;15.23;;;6.72;;
74908;SDS011;63468;52.058;4.824;2023-07-13T04:10:24;15.05;;;7.20;;
74908;SDS011;63468;52.058;4.824;2023-07-13T04:12:50;14.43;;;7.35;;
74908;SDS011;63468;52.058;4.824;2023-07-13T04:15:15;12.10;;;7.40;;
74908;SDS011;63468;52.058;4.824;2023-07-13T04:17:40;17.83;;;7.82;;
74908;SDS011;63468;52.058;4.824;2023-07-13T04:20:06;19.38;;;7.85;;
74908;SDS011;63468;52.058;4.824;2023-07-13T04:22:32;22.23;;;8.18;;
74908;SDS011;63468;52.058;4.824;2023-07-13T04:24:57;16.00;;;7.75;;
74908;SDS011;63468;52.058;4.824;2023-07-13T04:27:22;15.80;;;7.78;;
74908;SDS011;63468;52.058;4.824;2023-07-13T04:29:48;15.30;;;8.38;;
74908;SDS011;63468;52.058;4.824;2023-07-13T04:32:13;16.73;;;8.63;;
74908;SDS011;63468;52.058;4.824;2023-07-13T04:34:39;18.65;;;8.65;;
74908;SDS011;63468;52.058;4.824;2023-07-13T04:37:04;17.88;;;8.65;;
74908;SDS011;63468;52.058;4.824;2023-07-13T04:39:30;14.18;;;8.52;;
74908;SDS011;63468;52.058;4.824;2023-07-13T04:41:55;14.48;;;9.25;;
74908;SDS011;63468;52.058;4.824;2023-07-13T04:44:21;15.73;;;8.77;;
74908;SDS011;63468;52.058;4.824;2023-07-13T04:46:46;17.67;;;9.27;;
74908;SDS011;63468;52.058;4.824;2023-07-13T04:49:11;16.73;;;8.05;;
74908;SDS011;63468;52.058;4.824;2023-07-13T04:51:37;15.57;;;7.53;;
74908;SDS011;63468;52.058;4.824;2023-07-13T04:54:03;14.93;;;7.65;;
74908;SDS011;63468;52.058;4.824;2023-07-13T04:56:30;16.63;;;8.02;;
74908;SDS011;63468;52.058;4.824;2023-07-13T04:58:55;18.38;;;8.07;;
74908;SDS011;63468;52.058;4.824;2023-07-13T05:01:20;20.05;;;7.95;;
74908;SDS011;63468;52.058;4.824;2023-07-13T05:03:46;16.73;;;8.93;;
74908;SDS011;63468;52.058;4.824;2023-07-13T05:06:11;14.43;;;6.43;;
74908;SDS011;63468;52.058;4.824;2023-07-13T05:08:37;20.95;;;7.38;;
74908;SDS011;63468;52.058;4.824;2023-07-13T05:11:04;17.42;;;7.32;;
74908;SDS011;63468;52.058;4.824;2023-07-13T05:13:30;18.15;;;7.47;;
74908;SDS011;63468;52.058;4.824;2023-07-13T05:15:57;16.40;;;6.65;;
74908;SDS011;63468;52.058;4.824;2023-07-13T05:18:23;12.35;;;7.78;;
74908;SDS011;63468;52.058;4.824;2023-07-13T05:20:56;21.80;;;9.70;;
74908;SDS011;63468;52.058;4.824;2023-07-13T05:23:25;14.98;;;9.27;;
74908;SDS011;63468;52.058;4.824;2023-07-13T05:25:50;16.77;;;9.82;;
74908;SDS011;63468;52.058;4.824;2023-07-13T05:28:16;18.88;;;10.38;;
74908;SDS011;63468;52.058;4.824;2023-07-13T05:30:45;16.80;;;9.90;;
74908;SDS011;63468;52.058;4.824;2023-07-13T05:33:11;21.85;;;11.43;;
74908;SDS011;63468;52.058;4.824;2023-07-13T05:35:37;14.85;;;9.75;;
74908;SDS011;63468;52.058;4.824;2023-07-13T05:38:02;17.85;;;10.30;;
74908;SDS011;63468;52.058;4.824;2023-07-13T05:40:28;21.25;;;11.75;;
74908;SDS011;63468;52.058;4.824;2023-07-13T05:42:53;17.58;;;11.40;;
74908;SDS011;63468;52.058;4.824;2023-07-13T05:45:18;16.10;;;10.02;;
74908;SDS011;63468;52.058;4.824;2023-07-13T05:47:44;15.90;;;9.55;;
74908;SDS011;63468;52.058;4.824;2023-07-13T05:50:09;18.45;;;8.50;;
74908;SDS011;63468;52.058;4.824;2023-07-13T05:52:35;18.25;;;8.57;;
74908;SDS011;63468;52.058;4.824;2023-07-13T05:55:00;22.83;;;8.00;;
74908;SDS011;63468;52.058;4.824;2023-07-13T05:57:25;15.98;;;8.35;;
74908;SDS011;63468;52.058;4.824;2023-07-13T05:59:51;17.80;;;9.32;;
74908;SDS011;63468;52.058;4.824;2023-07-13T06:02:16;20.83;;;8.98;;
74908;SDS011;63468;52.058;4.824;2023-07-13T06:04:41;18.50;;;8.48;;
74908;SDS011;63468;52.058;4.824;2023-07-13T06:07:07;17.65;;;8.65;;
74908;SDS011;63468;52.058;4.824;2023-07-13T06:09:32;23.60;;;9.52;;
74908;SDS011;63468;52.058;4.824;2023-07-13T06:11:57;22.35;;;10.68;;
74908;SDS011;63468;52.058;4.824;2023-07-13T06:14:23;25.50;;;19.13;;
74908;SDS011;63468;52.058;4.824;2023-07-13T06:16:48;21.92;;;18.52;;
74908;SDS011;63468;52.058;4.824;2023-07-13T06:19:13;26.65;;;20.17;;
74908;SDS011;63468;52.058;4.824;2023-07-13T06:21:39;23.75;;;19.80;;
74908;SDS011;63468;52.058;4.824;2023-07-13T06:24:04;22.02;;;19.38;;
74908;SDS011;63468;52.058;4.824;2023-07-13T06:26:30;21.20;;;18.40;;
74908;SDS011;63468;52.058;4.824;2023-07-13T06:28:55;23.55;;;18.65;;
74908;SDS011;63468;52.058;4.824;2023-07-13T06:31:20;25.10;;;18.25;;
74908;SDS011;63468;52.058;4.824;2023-07-13T06:33:46;17.65;;;11.77;;
74908;SDS011;63468;52.058;4.824;2023-07-13T06:36:11;19.92;;;18.10;;
74908;SDS011;63468;52.058;4.824;2023-07-13T06:38:37;21.33;;;19.63;;
74908;SDS011;63468;52.058;4.824;2023-07-13T06:41:03;23.80;;;22.02;;
74908;SDS011;63468;52.058;4.824;2023-07-13T06:43:29;20.25;;;18.75;;
74908;SDS011;63468;52.058;4.824;2023-07-13T06:45:56;24.13;;;22.35;;
74908;SDS011;63468;52.058;4.824;2023-07-13T06:48:22;24.55;;;23.02;;
74908;SDS011;63468;52.058;4.824;2023-07-13T06:50:48;27.25;;;25.25;;
74908;SDS011;63468;52.058;4.824;2023-07-13T06:53:14;26.27;;;24.48;;
74908;SDS011;63468;52.058;4.824;2023-07-13T06:55:40;27.50;;;25.63;;
74908;SDS011;63468;52.058;4.824;2023-07-13T06:58:05;23.65;;;22.05;;
74908;SDS011;63468;52.058;4.824;2023-07-13T07:00:31;24.55;;;22.60;;
74908;SDS011;63468;52.058;4.824;2023-07-13T07:02:56;24.40;;;22.75;;
74908;SDS011;63468;52.058;4.824;2023-07-13T07:05:22;23.75;;;22.15;;
74908;SDS011;63468;52.058;4.824;2023-07-13T07:07:50;25.90;;;24.02;;
74908;SDS011;63468;52.058;4.824;2023-07-13T07:10:17;25.92;;;24.05;;
74908;SDS011;63468;52.058;4.824;2023-07-13T07:12:43;26.05;;;23.95;;
74908;SDS011;63468;52.058;4.824;2023-07-13T07:15:08;24.75;;;22.52;;
74908;SDS011;63468;52.058;4.824;2023-07-13T07:17:34;22.45;;;20.90;;
74908;SDS011;63468;52.058;4.824;2023-07-13T07:19:59;23.45;;;21.75;;
74908;SDS011;63468;52.058;4.824;2023-07-13T07:22:25;22.50;;;20.60;;
74908;SDS011;63468;52.058;4.824;2023-07-13T07:24:53;22.67;;;20.95;;
74908;SDS011;63468;52.058;4.824;2023-07-13T07:27:19;21.00;;;19.50;;
74908;SDS011;63468;52.058;4.824;2023-07-13T07:29:44;19.63;;;18.02;;
74908;SDS011;63468;52.058;4.824;2023-07-13T07:32:10;23.58;;;21.38;;
74908;SDS011;63468;52.058;4.824;2023-07-13T07:34:35;23.52;;;21.30;;
74908;SDS011;63468;52.058;4.824;2023-07-13T07:37:01;20.60;;;18.80;;
74908;SDS011;63468;52.058;4.824;2023-07-13T07:39:27;21.50;;;19.75;;
74908;SDS011;63468;52.058;4.824;2023-07-13T07:41:52;19.83;;;18.20;;
74908;SDS011;63468;52.058;4.824;2023-07-13T07:44:17;20.63;;;18.75;;
74908;SDS011;63468;52.058;4.824;2023-07-13T07:46:43;20.42;;;18.33;;
74908;SDS011;63468;52.058;4.824;2023-07-13T07:49:08;20.25;;;17.80;;
74908;SDS011;63468;52.058;4.824;2023-07-13T07:51:34;20.73;;;18.58;;
74908;SDS011;63468;52.058;4.824;2023-07-13T07:53:59;17.48;;;15.63;;
74908;SDS011;63468;52.058;4.824;2023-07-13T07:56:24;19.63;;;16.13;;
74908;SDS011;63468;52.058;4.824;2023-07-13T07:58:50;26.27;;;15.02;;
74908;SDS011;63468;52.058;4.824;2023-07-13T08:01:15;16.92;;;15.25;;
74908;SDS011;63468;52.058;4.824;2023-07-13T08:03:41;14.88;;;13.07;;
74908;SDS011;63468;52.058;4.824;2023-07-13T08:06:06;13.65;;;11.80;;
74908;SDS011;63468;52.058;4.824;2023-07-13T08:08:32;10.93;;;9.63;;
74908;SDS011;63468;52.058;4.824;2023-07-13T08:10:57;14.48;;;10.40;;
74908;SDS011;63468;52.058;4.824;2023-07-13T08:13:22;13.73;;;11.73;;
74908;SDS011;63468;52.058;4.824;2023-07-13T08:15:48;14.48;;;13.18;;
74908;SDS011;63468;52.058;4.824;2023-07-13T08:18:14;15.63;;;11.57;;
74908;SDS011;63468;52.058;4.824;2023-07-13T08:20:40;13.50;;;12.30;;
74908;SDS011;63468;52.058;4.824;2023-07-13T08:23:06;11.45;;;10.27;;
74908;SDS011;63468;52.058;4.824;2023-07-13T08:25:32;10.73;;;9.57;;
74908;SDS011;63468;52.058;4.824;2023-07-13T08:27:57;14.30;;;9.45;;
74908;SDS011;63468;52.058;4.824;2023-07-13T08:30:23;11.43;;;10.25;;
74908;SDS011;63468;52.058;4.824;2023-07-13T08:32:48;13.55;;;12.13;;
74908;SDS011;63468;52.058;4.824;2023-07-13T08:35:14;14.73;;;11.85;;
74908;SDS011;63468;52.058;4.824;2023-07-13T08:37:40;14.50;;;13.25;;
74908;SDS011;63468;52.058;4.824;2023-07-13T08:40:07;13.30;;;12.00;;
74908;SDS011;63468;52.058;4.824;2023-07-13T08:42:48;13.88;;;11.43;;
74908;SDS011;63468;52.058;4.824;2023-07-13T08:45:22;14.70;;;11.48;;
74908;SDS011;63468;52.058;4.824;2023-07-13T08:48:01;13.80;;;12.27;;
74908;SDS011;63468;52.058;4.824;2023-07-13T08:50:35;13.38;;;12.07;;
74908;SDS011;63468;52.058;4.824;2023-07-13T08:53:07;12.70;;;11.07;;
74908;SDS011;63468;52.058;4.824;2023-07-13T08:55:34;13.00;;;9.52;;
74908;SDS011;63468;52.058;4.824;2023-07-13T08:58:04;11.27;;;9.13;;
74908;SDS011;63468;52.058;4.824;2023-07-13T09:00:43;12.30;;;9.38;;
74908;SDS011;63468;52.058;4.824;2023-07-13T09:03:23;9.73;;;8.68;;
74908;SDS011;63468;52.058;4.824;2023-07-13T09:05:53;9.70;;;8.70;;
74908;SDS011;63468;52.058;4.824;2023-07-13T09:11:04;10.40;;;8.93;;
74908;SDS011;63468;52.058;4.824;2023-07-13T09:16:23;12.98;;;10.68;;
74908;SDS011;63468;52.058;4.824;2023-07-13T09:18:50;13.63;;;11.90;;
74908;SDS011;63468;52.058;4.824;2023-07-13T09:23:56;16.65;;;13.38;;
74908;SDS011;63468;52.058;4.824;2023-07-13T09:26:25;14.60;;;13.07;;
74908;SDS011;63468;52.058;4.824;2023-07-13T09:29:03;12.85;;;11.63;;
74908;SDS011;63468;52.058;4.824;2023-07-13T09:31:45;14.88;;;13.45;;
74908;SDS011;63468;52.058;4.824;2023-07-13T09:34:13;13.65;;;12.35;;
74908;SDS011;63468;52.058;4.824;2023-07-13T09:36:38;14.05;;;12.75;;
74908;SDS011;63468;52.058;4.824;2023-07-13T09:42:18;11.38;;;10.23;;
74908;SDS011;63468;52.058;4.824;2023-07-13T09:44:34;11.02;;;8.85;;
74908;SDS011;63468;52.058;4.824;2023-07-13T09:47:00;14.57;;;8.73;;
74908;SDS011;63468;52.058;4.824;2023-07-13T09:49:28;16.65;;;11.02;;
74908;SDS011;63468;52.058;4.824;2023-07-13T09:52:00;12.30;;;9.45;;
74908;SDS011;63468;52.058;4.824;2023-07-13T09:54:32;13.93;;;12.02;;
74908;SDS011;63468;52.058;4.824;2023-07-13T09:56:59;13.13;;;10.60;;
74908;SDS011;63468;52.058;4.824;2023-07-13T09:59:33;13.02;;;10.50;;
74908;SDS011;63468;52.058;4.824;2023-07-13T10:02:38;11.13;;;10.00;;
74908;SDS011;63468;52.058;4.824;2023-07-13T10:04:59;10.00;;;9.05;;
74908;SDS011;63468;52.058;4.824;2023-07-13T10:07:30;11.25;;;10.18;;
74908;SDS011;63468;52.058;4.824;2023-07-13T10:09:57;11.75;;;10.43;;
74908;SDS011;63468;52.058;4.824;2023-07-13T10:12:23;11.82;;;10.63;;
74908;SDS011;63468;52.058;4.824;2023-07-13T10:14:54;14.93;;;11.85;;
74908;SDS011;63468;52.058;4.824;2023-07-13T10:17:24;11.27;;;10.18;;
74908;SDS011;63468;52.058;4.824;2023-07-13T10:19:58;11.93;;;10.70;;
74908;SDS011;63468;52.058;4.824;2023-07-13T10:22:41;12.80;;;11.07;;
74908;SDS011;63468;52.058;4.824;2023-07-13T10:25:13;12.15;;;10.85;;
74908;SDS011;63468;52.058;4.824;2023-07-13T10:27:42;14.52;;;12.57;;
74908;SDS011;63468;52.058;4.824;2023-07-13T10:30:21;14.43;;;12.10;;
74908;SDS011;63468;52.058;4.824;2023-07-13T10:32:50;13.27;;;12.00;;
74908;SDS011;63468;52.058;4.824;2023-07-13T10:35:17;13.93;;;10.85;;
74908;SDS011;63468;52.058;4.824;2023-07-13T10:38:01;13.95;;;10.48;;
74908;SDS011;63468;52.058;4.824;2023-07-13T10:40:43;12.35;;;10.30;;
74908;SDS011;63468;52.058;4.824;2023-07-13T10:46:16;13.18;;;11.15;;
74908;SDS011;63468;52.058;4.824;2023-07-13T10:48:44;11.98;;;10.88;;
74908;SDS011;63468;52.058;4.824;2023-07-13T10:51:14;11.80;;;10.70;;
74908;SDS011;63468;52.058;4.824;2023-07-13T10:53:42;13.35;;;12.00;;
74908;SDS011;63468;52.058;4.824;2023-07-13T10:56:27;13.05;;;11.73;;
74908;SDS011;63468;52.058;4.824;2023-07-13T11:04:23;14.90;;;11.20;;
74908;SDS011;63468;52.058;4.824;2023-07-13T11:06:52;12.07;;;10.85;;
74908;SDS011;63468;52.058;4.824;2023-07-13T11:09:35;12.52;;;11.32;;
74908;SDS011;63468;52.058;4.824;2023-07-13T11:12:09;14.93;;;13.50;;
74908;SDS011;63468;52.058;4.824;2023-07-13T11:23:07;14.13;;;12.73;;
74908;SDS011;63468;52.058;4.824;2023-07-13T11:25:38;14.70;;;13.15;;
74908;SDS011;63468;52.058;4.824;2023-07-13T11:30:39;13.10;;;11.68;;
74908;SDS011;63468;52.058;4.824;2023-07-13T11:33:23;13.43;;;12.13;;
74908;SDS011;63468;52.058;4.824;2023-07-13T11:36:05;13.35;;;12.18;;
74908;SDS011;63468;52.058;4.824;2023-07-13T11:38:45;14.90;;;12.10;;
74908;SDS011;63468;52.058;4.824;2023-07-13T11:43:45;12.90;;;11.60;;
74908;SDS011;63468;52.058;4.824;2023-07-13T11:48:46;13.10;;;11.52;;
74908;SDS011;63468;52.058;4.824;2023-07-13T11:51:34;11.98;;;10.68;;
74908;SDS011;63468;52.058;4.824;2023-07-13T11:54:06;12.45;;;11.02;;
74908;SDS011;63468;52.058;4.824;2023-07-13T11:56:38;11.82;;;8.93;;
74908;SDS011;63468;52.058;4.824;2023-07-13T11:59:04;10.70;;;9.30;;
74908;SDS011;63468;52.058;4.824;2023-07-13T12:01:33;12.18;;;11.18;;
74908;SDS011;63468;52.058;4.824;2023-07-13T12:04:00;12.05;;;10.90;;
74908;SDS011;63468;52.058;4.824;2023-07-13T12:06:27;16.48;;;9.57;;
74908;SDS011;63468;52.058;4.824;2023-07-13T12:09:00;12.65;;;11.32;;
74908;SDS011;63468;52.058;4.824;2023-07-13T12:11:28;12.18;;;10.77;;
74908;SDS011;63468;52.058;4.824;2023-07-13T12:13:54;12.13;;;10.82;;
74908;SDS011;63468;52.058;4.824;2023-07-13T12:18:55;11.40;;;10.38;;
74908;SDS011;63468;52.058;4.824;2023-07-13T12:21:23;10.73;;;9.63;;
74908;SDS011;63468;52.058;4.824;2023-07-13T12:23:54;12.20;;;11.10;;
74908;SDS011;63468;52.058;4.824;2023-07-13T12:26:20;13.13;;;11.20;;
74908;SDS011;63468;52.058;4.824;2023-07-13T12:28:49;11.85;;;10.68;;
74908;SDS011;63468;52.058;4.824;2023-07-13T12:34:00;11.43;;;10.20;;
74908;SDS011;63468;52.058;4.824;2023-07-13T12:36:29;10.88;;;9.75;;
74908;SDS011;63468;52.058;4.824;2023-07-13T12:38:57;12.30;;;11.02;;
74908;SDS011;63468;52.058;4.824;2023-07-13T12:41:29;11.05;;;9.85;;
74908;SDS011;63468;52.058;4.824;2023-07-13T12:43:54;11.05;;;9.90;;
74908;SDS011;63468;52.058;4.824;2023-07-13T12:46:20;13.75;;;11.45;;
74908;SDS011;63468;52.058;4.824;2023-07-13T12:48:52;10.65;;;9.55;;
74908;SDS011;63468;52.058;4.824;2023-07-13T12:51:21;11.48;;;10.43;;
74908;SDS011;63468;52.058;4.824;2023-07-13T12:53:49;12.05;;;10.95;;
74908;SDS011;63468;52.058;4.824;2023-07-13T12:56:19;11.43;;;9.80;;
74908;SDS011;63468;52.058;4.824;2023-07-13T12:58:48;10.80;;;9.70;;
74908;SDS011;63468;52.058;4.824;2023-07-13T13:01:21;10.90;;;9.82;;
74908;SDS011;63468;52.058;4.824;2023-07-13T13:03:48;11.48;;;10.38;;
74908;SDS011;63468;52.058;4.824;2023-07-13T13:08:45;10.85;;;9.85;;
74908;SDS011;63468;52.058;4.824;2023-07-13T13:11:15;11.48;;;10.35;;
74908;SDS011;63468;52.058;4.824;2023-07-13T13:13:41;11.25;;;9.70;;
74908;SDS011;63468;52.058;4.824;2023-07-13T13:16:20;10.55;;;9.55;;
74908;SDS011;63468;52.058;4.824;2023-07-13T13:18:56;11.20;;;10.20;;
74908;SDS011;63468;52.058;4.824;2023-07-13T13:21:25;11.77;;;10.35;;
74908;SDS011;63468;52.058;4.824;2023-07-13T13:23:51;11.70;;;10.50;;
74908;SDS011;63468;52.058;4.824;2023-07-13T13:26:18;11.18;;;10.07;;
74908;SDS011;63468;52.058;4.824;2023-07-13T13:28:44;11.98;;;9.88;;
74908;SDS011;63468;52.058;4.824;2023-07-13T13:31:10;11.32;;;9.43;;
74908;SDS011;63468;52.058;4.824;2023-07-13T13:33:38;11.18;;;9.50;;
74908;SDS011;63468;52.058;4.824;2023-07-13T13:36:12;11.05;;;9.93;;
74908;SDS011;63468;52.058;4.824;2023-07-13T13:38:42;12.75;;;9.50;;
74908;SDS011;63468;52.058;4.824;2023-07-13T13:41:09;9.65;;;8.75;;
74908;SDS011;63468;52.058;4.824;2023-07-13T13:43:35;10.73;;;9.68;;
74908;SDS011;63468;52.058;4.824;2023-07-13T13:46:00;10.18;;;9.13;;
74908;SDS011;63468;52.058;4.824;2023-07-13T13:48:30;11.80;;;9.27;;
74908;SDS011;63468;52.058;4.824;2023-07-13T13:50:57;11.93;;;9.75;;
74908;SDS011;63468;52.058;4.824;2023-07-13T13:53:23;10.93;;;9.88;;
74908;SDS011;63468;52.058;4.824;2023-07-13T13:55:48;12.05;;;9.40;;
74908;SDS011;63468;52.058;4.824;2023-07-13T13:58:14;11.88;;;9.50;;
74908;SDS011;63468;52.058;4.824;2023-07-13T14:00:40;9.90;;;8.82;;
74908;SDS011;63468;52.058;4.824;2023-07-13T14:03:05;11.05;;;9.10;;
74908;SDS011;63468;52.058;4.824;2023-07-13T14:05:38;12.23;;;9.63;;
74908;SDS011;63468;52.058;4.824;2023-07-13T14:08:08;11.88;;;10.30;;
74908;SDS011;63468;52.058;4.824;2023-07-13T14:10:41;10.88;;;8.73;;
74908;SDS011;63468;52.058;4.824;2023-07-13T14:13:13;10.90;;;9.40;;
74908;SDS011;63468;52.058;4.824;2023-07-13T14:15:47;10.57;;;8.60;;
74908;SDS011;63468;52.058;4.824;2023-07-13T14:18:13;12.68;;;8.90;;
74908;SDS011;63468;52.058;4.824;2023-07-13T14:20:43;9.30;;;8.38;;
74908;SDS011;63468;52.058;4.824;2023-07-13T14:23:09;10.93;;;8.35;;
74908;SDS011;63468;52.058;4.824;2023-07-13T14:25:35;9.52;;;7.78;;
74908;SDS011;63468;52.058;4.824;2023-07-13T14:28:04;10.60;;;8.20;;
74908;SDS011;63468;52.058;4.824;2023-07-13T14:30:40;9.30;;;7.88;;
74908;SDS011;63468;52.058;4.824;2023-07-13T14:33:09;12.40;;;8.50;;
74908;SDS011;63468;52.058;4.824;2023-07-13T14:35:36;9.75;;;8.13;;
74908;SDS011;63468;52.058;4.824;2023-07-13T14:38:02;10.48;;;8.50;;
74908;SDS011;63468;52.058;4.824;2023-07-13T14:40:29;9.23;;;8.23;;
74908;SDS011;63468;52.058;4.824;2023-07-13T14:42:55;9.60;;;8.15;;
74908;SDS011;63468;52.058;4.824;2023-07-13T14:45:20;9.75;;;8.00;;
74908;SDS011;63468;52.058;4.824;2023-07-13T14:47:46;11.45;;;9.02;;
74908;SDS011;63468;52.058;4.824;2023-07-13T14:50:24;14.80;;;8.70;;
74908;SDS011;63468;52.058;4.824;2023-07-13T14:52:54;9.88;;;8.90;;
74908;SDS011;63468;52.058;4.824;2023-07-13T14:55:19;10.38;;;8.95;;
74908;SDS011;63468;52.058;4.824;2023-07-13T14:57:45;9.63;;;8.07;;
74908;SDS011;63468;52.058;4.824;2023-07-13T15:00:14;10.80;;;7.50;;
74908;SDS011;63468;52.058;4.824;2023-07-13T15:02:41;8.85;;;7.95;;
74908;SDS011;63468;52.058;4.824;2023-07-13T15:05:20;9.98;;;8.15;;
74908;SDS011;63468;52.058;4.824;2023-07-13T15:07:50;10.43;;;9.15;;
74908;SDS011;63468;52.058;4.824;2023-07-13T15:10:17;9.23;;;8.13;;
74908;SDS011;63468;52.058;4.824;2023-07-13T15:12:45;9.20;;;8.30;;
74908;SDS011;63468;52.058;4.824;2023-07-13T15:15:11;9.85;;;8.18;;
74908;SDS011;63468;52.058;4.824;2023-07-13T15:17:38;9.20;;;8.30;;
74908;SDS011;63468;52.058;4.824;2023-07-13T15:22:45;10.02;;;7.15;;